Terminal Aerodrome Forecast
Issued by NWS Wilmington, OH

Current Version | Previous Version | Text Only | Print | Product List | Glossary Off
Versions: 1 2 3 4 5 6 7 8 9 10 11 12 13 14 15 16 17

000
FTUS41 KILN 201130
TAFCMH
TAF
KCMH 201130Z 2012/2112 26009KT P6SM SKC
     FM201800 26012KT P6SM SCT060
     FM210000 25005KT P6SM SCT200
     FM210900 18003KT P6SM BKN080=

USA.gov is the U.S. government's official web portal to all federal, state and local government web resources and services.